sensor_id;sensor_type;location;lat;lon;timestamp;temperature;humidity
40023;DHT22;25713;-35.352;149.036;2022-11-13T00:02:32;17.20;99.90
40023;DHT22;25713;-35.352;149.036;2022-11-13T00:05:19;17.20;99.90
40023;DHT22;25713;-35.352;149.036;2022-11-13T00:08:07;17.20;99.90
40023;DHT22;25713;-35.352;149.036;2022-11-13T00:11:00;17.30;99.90
40023;DHT22;25713;-35.352;149.036;2022-11-13T00:13:48;17.30;99.90
40023;DHT22;25713;-35.352;149.036;2022-11-13T00:16:36;17.40;99.90
40023;DHT22;25713;-35.352;149.036;2022-11-13T00:19:25;17.40;99.90
40023;DHT22;25713;-35.352;149.036;2022-11-13T00:22:13;17.50;99.90
40023;DHT22;25713;-35.352;149.036;2022-11-13T00:25:00;17.50;99.90
40023;DHT22;25713;-35.352;149.036;2022-11-13T00:27:47;17.50;99.90
40023;DHT22;25713;-35.352;149.036;2022-11-13T00:30:34;17.60;99.90
40023;DHT22;25713;-35.352;149.036;2022-11-13T00:33:22;17.60;99.90
40023;DHT22;25713;-35.352;149.036;2022-11-13T00:36:16;17.60;99.90
40023;DHT22;25713;-35.352;149.036;2022-11-13T00:39:04;17.70;99.90
40023;DHT22;25713;-35.352;149.036;2022-11-13T00:41:51;17.70;99.90
40023;DHT22;25713;-35.352;149.036;2022-11-13T00:44:39;17.70;99.90
40023;DHT22;25713;-35.352;149.036;2022-11-13T00:47:26;17.80;99.90
40023;DHT22;25713;-35.352;149.036;2022-11-13T00:50:13;17.90;99.90
40023;DHT22;25713;-35.352;149.036;2022-11-13T00:53:03;17.90;99.90
40023;DHT22;25713;-35.352;149.036;2022-11-13T00:55:50;17.90;99.90
40023;DHT22;25713;-35.352;149.036;2022-11-13T00:58:38;18.00;99.90
40023;DHT22;25713;-35.352;149.036;2022-11-13T01:01:25;18.10;99.90
40023;DHT22;25713;-35.352;149.036;2022-11-13T01:04:13;18.10;99.90
40023;DHT22;25713;-35.352;149.036;2022-11-13T01:07:00;18.20;99.90
40023;DHT22;25713;-35.352;149.036;2022-11-13T01:09:52;18.20;99.90
40023;DHT22;25713;-35.352;149.036;2022-11-13T01:12:39;18.20;99.90
40023;DHT22;25713;-35.352;149.036;2022-11-13T01:15:27;18.30;99.90
40023;DHT22;25713;-35.352;149.036;2022-11-13T01:18:14;18.30;99.90
40023;DHT22;25713;-35.352;149.036;2022-11-13T01:21:06;18.30;99.90
40023;DHT22;25713;-35.352;149.036;2022-11-13T01:23:54;18.30;99.90
40023;DHT22;25713;-35.352;149.036;2022-11-13T01:26:43;18.30;99.90
40023;DHT22;25713;-35.352;149.036;2022-11-13T01:29:30;18.20;99.90
40023;DHT22;25713;-35.352;149.036;2022-11-13T01:32:17;18.20;99.90
40023;DHT22;25713;-35.352;149.036;2022-11-13T01:35:05;18.20;99.90
40023;DHT22;25713;-35.352;149.036;2022-11-13T01:37:52;18.20;99.90
40023;DHT22;25713;-35.352;149.036;2022-11-13T01:40:45;18.20;99.90
40023;DHT22;25713;-35.352;149.036;2022-11-13T01:43:36;18.20;99.90
40023;DHT22;25713;-35.352;149.036;2022-11-13T01:46:28;18.20;99.90
40023;DHT22;25713;-35.352;149.036;2022-11-13T01:49:24;18.20;99.90
40023;DHT22;25713;-35.352;149.036;2022-11-13T01:52:15;18.20;99.90
40023;DHT22;25713;-35.352;149.036;2022-11-13T01:55:05;18.30;99.90
40023;DHT22;25713;-35.352;149.036;2022-11-13T01:57:54;18.30;99.90
40023;DHT22;25713;-35.352;149.036;2022-11-13T02:00:43;18.30;99.90
40023;DHT22;25713;-35.352;149.036;2022-11-13T02:03:31;18.40;99.90
40023;DHT22;25713;-35.352;149.036;2022-11-13T02:06:19;18.30;99.90
40023;DHT22;25713;-35.352;149.036;2022-11-13T02:09:08;18.40;99.90
40023;DHT22;25713;-35.352;149.036;2022-11-13T02:11:56;18.40;99.90
40023;DHT22;25713;-35.352;149.036;2022-11-13T02:14:45;18.40;99.90
40023;DHT22;25713;-35.352;149.036;2022-11-13T02:17:39;18.40;99.90
40023;DHT22;25713;-35.352;149.036;2022-11-13T02:20:33;18.40;99.90
40023;DHT22;25713;-35.352;149.036;2022-11-13T02:23:27;18.40;99.90
40023;DHT22;25713;-35.352;149.036;2022-11-13T02:26:19;18.40;99.90
40023;DHT22;25713;-35.352;149.036;2022-11-13T02:29:08;18.40;99.90
40023;DHT22;25713;-35.352;149.036;2022-11-13T02:31:55;18.50;99.90
40023;DHT22;25713;-35.352;149.036;2022-11-13T02:34:42;18.50;99.90
40023;DHT22;25713;-35.352;149.036;2022-11-13T02:37:29;18.50;99.90
40023;DHT22;25713;-35.352;149.036;2022-11-13T02:40:17;18.50;99.90
40023;DHT22;25713;-35.352;149.036;2022-11-13T02:43:06;18.60;99.90
40023;DHT22;25713;-35.352;149.036;2022-11-13T02:45:54;18.50;99.90
40023;DHT22;25713;-35.352;149.036;2022-11-13T02:48:41;18.60;99.90
40023;DHT22;25713;-35.352;149.036;2022-11-13T02:51:29;18.60;99.90
40023;DHT22;25713;-35.352;149.036;2022-11-13T02:54:16;18.60;99.90
40023;DHT22;25713;-35.352;149.036;2022-11-13T02:57:03;18.60;99.90
40023;DHT22;25713;-35.352;149.036;2022-11-13T02:59:52;18.60;99.90
40023;DHT22;25713;-35.352;149.036;2022-11-13T03:02:40;18.60;99.90
40023;DHT22;25713;-35.352;149.036;2022-11-13T03:05:27;18.50;99.90
40023;DHT22;25713;-35.352;149.036;2022-11-13T03:08:15;18.50;99.90
40023;DHT22;25713;-35.352;149.036;2022-11-13T03:11:07;18.50;99.90
40023;DHT22;25713;-35.352;149.036;2022-11-13T03:13:54;18.50;99.90
40023;DHT22;25713;-35.352;149.036;2022-11-13T03:16:44;18.50;99.90
40023;DHT22;25713;-35.352;149.036;2022-11-13T03:19:31;18.50;99.90
40023;DHT22;25713;-35.352;149.036;2022-11-13T03:22:18;18.50;99.90
40023;DHT22;25713;-35.352;149.036;2022-11-13T03:25:07;18.50;99.90
40023;DHT22;25713;-35.352;149.036;2022-11-13T03:27:54;18.50;99.90
40023;DHT22;25713;-35.352;149.036;2022-11-13T03:30:42;18.50;99.90
40023;DHT22;25713;-35.352;149.036;2022-11-13T03:33:31;18.40;99.90
40023;DHT22;25713;-35.352;149.036;2022-11-13T03:36:18;18.40;99.90
40023;DHT22;25713;-35.352;149.036;2022-11-13T03:39:06;18.40;99.90
40023;DHT22;25713;-35.352;149.036;2022-11-13T03:41:53;18.30;99.90
40023;DHT22;25713;-35.352;149.036;2022-11-13T03:44:40;18.40;99.90
40023;DHT22;25713;-35.352;149.036;2022-11-13T03:47:27;18.40;99.90
40023;DHT22;25713;-35.352;149.036;2022-11-13T03:50:17;18.40;99.90
40023;DHT22;25713;-35.352;149.036;2022-11-13T03:53:04;18.40;99.90
40023;DHT22;25713;-35.352;149.036;2022-11-13T03:55:52;18.40;99.90
40023;DHT22;25713;-35.352;149.036;2022-11-13T03:58:39;18.40;99.90
40023;DHT22;25713;-35.352;149.036;2022-11-13T04:01:26;18.40;99.90
40023;DHT22;25713;-35.352;149.036;2022-11-13T04:04:14;18.40;99.90
40023;DHT22;25713;-35.352;149.036;2022-11-13T04:07:04;18.50;99.90
40023;DHT22;25713;-35.352;149.036;2022-11-13T04:09:51;18.40;99.90
40023;DHT22;25713;-35.352;149.036;2022-11-13T04:12:38;18.40;99.90
40023;DHT22;25713;-35.352;149.036;2022-11-13T04:15:26;18.40;99.90
40023;DHT22;25713;-35.352;149.036;2022-11-13T04:18:13;18.40;99.90
40023;DHT22;25713;-35.352;149.036;2022-11-13T04:21:01;18.30;99.90
40023;DHT22;25713;-35.352;149.036;2022-11-13T04:23:51;18.30;99.90
40023;DHT22;25713;-35.352;149.036;2022-11-13T04:26:39;18.30;99.90
40023;DHT22;25713;-35.352;149.036;2022-11-13T04:29:27;18.30;99.90
40023;DHT22;25713;-35.352;149.036;2022-11-13T04:32:14;18.40;99.90
40023;DHT22;25713;-35.352;149.036;2022-11-13T04:35:02;18.30;99.90
40023;DHT22;25713;-35.352;149.036;2022-11-13T04:37:49;18.30;99.90
40023;DHT22;25713;-35.352;149.036;2022-11-13T04:40:38;18.30;99.90
40023;DHT22;25713;-35.352;149.036;2022-11-13T04:43:26;18.30;99.90
40023;DHT22;25713;-35.352;149.036;2022-11-13T04:46:13;18.30;99.90
40023;DHT22;25713;-35.352;149.036;2022-11-13T04:49:00;18.30;99.90
40023;DHT22;25713;-35.352;149.036;2022-11-13T04:51:47;18.30;99.90
40023;DHT22;25713;-35.352;149.036;2022-11-13T04:54:35;18.30;99.90
40023;DHT22;25713;-35.352;149.036;2022-11-13T04:57:24;18.30;99.90
40023;DHT22;25713;-35.352;149.036;2022-11-13T05:00:12;18.30;99.90
40023;DHT22;25713;-35.352;149.036;2022-11-13T05:05:42;18.30;99.90
40023;DHT22;25713;-35.352;149.036;2022-11-13T05:08:29;18.30;99.90
40023;DHT22;25713;-35.352;149.036;2022-11-13T05:11:16;18.20;99.90
40023;DHT22;25713;-35.352;149.036;2022-11-13T05:14:09;18.20;99.90
40023;DHT22;25713;-35.352;149.036;2022-11-13T05:16:56;18.20;99.90
40023;DHT22;25713;-35.352;149.036;2022-11-13T05:19:44;18.20;99.90
40023;DHT22;25713;-35.352;149.036;2022-11-13T05:22:31;18.20;99.90
40023;DHT22;25713;-35.352;149.036;2022-11-13T05:25:19;18.20;99.90
40023;DHT22;25713;-35.352;149.036;2022-11-13T05:28:06;18.20;99.90
40023;DHT22;25713;-35.352;149.036;2022-11-13T05:31:03;18.10;99.90
40023;DHT22;25713;-35.352;149.036;2022-11-13T05:33:51;18.10;99.90
40023;DHT22;25713;-35.352;149.036;2022-11-13T05:36:39;18.10;99.90
40023;DHT22;25713;-35.352;149.036;2022-11-13T05:39:26;18.10;99.90
40023;DHT22;25713;-35.352;149.036;2022-11-13T05:42:14;18.10;99.90
40023;DHT22;25713;-35.352;149.036;2022-11-13T05:45:01;18.10;99.90
40023;DHT22;25713;-35.352;149.036;2022-11-13T05:47:51;18.10;99.90
40023;DHT22;25713;-35.352;149.036;2022-11-13T05:50:39;18.10;99.90
40023;DHT22;25713;-35.352;149.036;2022-11-13T05:53:26;18.10;99.90
40023;DHT22;25713;-35.352;149.036;2022-11-13T05:56:15;18.10;99.90
40023;DHT22;25713;-35.352;149.036;2022-11-13T05:59:04;18.10;99.90
40023;DHT22;25713;-35.352;149.036;2022-11-13T06:01:51;18.00;99.90
40023;DHT22;25713;-35.352;149.036;2022-11-13T06:04:42;18.00;99.90
40023;DHT22;25713;-35.352;149.036;2022-11-13T06:07:29;18.00;99.90
40023;DHT22;25713;-35.352;149.036;2022-11-13T06:10:17;18.00;99.90
40023;DHT22;25713;-35.352;149.036;2022-11-13T06:13:04;18.00;99.90
40023;DHT22;25713;-35.352;149.036;2022-11-13T06:15:52;18.00;99.90
40023;DHT22;25713;-35.352;149.036;2022-11-13T06:18:40;18.00;99.90
40023;DHT22;25713;-35.352;149.036;2022-11-13T06:21:31;18.00;99.90
40023;DHT22;25713;-35.352;149.036;2022-11-13T06:24:19;18.00;99.90
40023;DHT22;25713;-35.352;149.036;2022-11-13T06:27:06;18.00;99.90
40023;DHT22;25713;-35.352;149.036;2022-11-13T06:29:54;18.00;99.90
40023;DHT22;25713;-35.352;149.036;2022-11-13T06:32:41;18.00;99.90
40023;DHT22;25713;-35.352;149.036;2022-11-13T06:35:29;18.00;99.90
40023;DHT22;25713;-35.352;149.036;2022-11-13T06:38:19;18.00;99.90
40023;DHT22;25713;-35.352;149.036;2022-11-13T06:41:07;18.00;99.90
40023;DHT22;25713;-35.352;149.036;2022-11-13T06:43:55;18.00;99.90
40023;DHT22;25713;-35.352;149.036;2022-11-13T06:46:42;18.00;99.90
40023;DHT22;25713;-35.352;149.036;2022-11-13T06:49:30;18.00;99.90
40023;DHT22;25713;-35.352;149.036;2022-11-13T06:52:17;18.00;99.90
40023;DHT22;25713;-35.352;149.036;2022-11-13T06:55:07;18.00;99.90
40023;DHT22;25713;-35.352;149.036;2022-11-13T06:57:55;17.90;99.90
40023;DHT22;25713;-35.352;149.036;2022-11-13T07:00:43;17.90;99.90
40023;DHT22;25713;-35.352;149.036;2022-11-13T07:03:30;18.00;99.90
40023;DHT22;25713;-35.352;149.036;2022-11-13T07:06:20;18.00;99.90
40023;DHT22;25713;-35.352;149.036;2022-11-13T07:09:07;17.90;99.90
40023;DHT22;25713;-35.352;149.036;2022-11-13T07:11:57;18.00;99.90
40023;DHT22;25713;-35.352;149.036;2022-11-13T07:14:44;17.90;99.90
40023;DHT22;25713;-35.352;149.036;2022-11-13T07:17:31;17.90;99.90
40023;DHT22;25713;-35.352;149.036;2022-11-13T07:20:18;17.90;99.90
40023;DHT22;25713;-35.352;149.036;2022-11-13T07:23:06;17.90;99.90
40023;DHT22;25713;-35.352;149.036;2022-11-13T07:25:54;17.90;99.90
40023;DHT22;25713;-35.352;149.036;2022-11-13T07:28:43;17.90;99.90
40023;DHT22;25713;-35.352;149.036;2022-11-13T07:31:31;17.90;99.90
40023;DHT22;25713;-35.352;149.036;2022-11-13T07:34:18;17.90;99.90
40023;DHT22;25713;-35.352;149.036;2022-11-13T07:37:05;17.90;99.90
40023;DHT22;25713;-35.352;149.036;2022-11-13T07:39:53;17.90;99.90
40023;DHT22;25713;-35.352;149.036;2022-11-13T07:42:41;17.90;99.90
40023;DHT22;25713;-35.352;149.036;2022-11-13T07:45:30;17.90;99.90
40023;DHT22;25713;-35.352;149.036;2022-11-13T07:48:17;17.90;99.90
40023;DHT22;25713;-35.352;149.036;2022-11-13T07:51:04;17.90;99.90
40023;DHT22;25713;-35.352;149.036;2022-11-13T07:53:52;17.80;99.90
40023;DHT22;25713;-35.352;149.036;2022-11-13T07:56:40;17.80;99.90
40023;DHT22;25713;-35.352;149.036;2022-11-13T07:59:27;17.80;99.90
40023;DHT22;25713;-35.352;149.036;2022-11-13T08:02:17;17.80;99.90
40023;DHT22;25713;-35.352;149.036;2022-11-13T08:05:04;17.80;99.90
40023;DHT22;25713;-35.352;149.036;2022-11-13T08:07:52;17.70;99.90
40023;DHT22;25713;-35.352;149.036;2022-11-13T08:10:40;17.70;99.90
40023;DHT22;25713;-35.352;149.036;2022-11-13T08:13:27;17.70;99.90
40023;DHT22;25713;-35.352;149.036;2022-11-13T08:16:14;17.70;99.90
40023;DHT22;25713;-35.352;149.036;2022-11-13T08:19:03;17.70;99.90
40023;DHT22;25713;-35.352;149.036;2022-11-13T08:21:51;17.70;99.90
40023;DHT22;25713;-35.352;149.036;2022-11-13T08:24:38;17.70;99.90
40023;DHT22;25713;-35.352;149.036;2022-11-13T08:27:25;17.70;99.90
40023;DHT22;25713;-35.352;149.036;2022-11-13T08:30:13;17.70;99.90
40023;DHT22;25713;-35.352;149.036;2022-11-13T08:33:01;17.70;99.90
40023;DHT22;25713;-35.352;149.036;2022-11-13T08:35:57;17.70;99.90
40023;DHT22;25713;-35.352;149.036;2022-11-13T08:38:46;17.70;99.90
40023;DHT22;25713;-35.352;149.036;2022-11-13T08:41:34;17.70;99.90
40023;DHT22;25713;-35.352;149.036;2022-11-13T08:44:21;17.70;99.90
40023;DHT22;25713;-35.352;149.036;2022-11-13T08:47:08;17.70;99.90
40023;DHT22;25713;-35.352;149.036;2022-11-13T08:49:55;17.70;99.90
40023;DHT22;25713;-35.352;149.036;2022-11-13T08:52:45;17.70;99.90
40023;DHT22;25713;-35.352;149.036;2022-11-13T08:55:33;17.70;99.90
40023;DHT22;25713;-35.352;149.036;2022-11-13T08:58:20;17.70;99.90
40023;DHT22;25713;-35.352;149.036;2022-11-13T09:01:07;17.60;99.90
40023;DHT22;25713;-35.352;149.036;2022-11-13T09:03:55;17.60;99.90
40023;DHT22;25713;-35.352;149.036;2022-11-13T09:06:42;17.60;99.90
40023;DHT22;25713;-35.352;149.036;2022-11-13T09:09:31;17.60;99.90
40023;DHT22;25713;-35.352;149.036;2022-11-13T09:12:19;17.60;99.90
40023;DHT22;25713;-35.352;149.036;2022-11-13T09:15:06;17.60;99.90
40023;DHT22;25713;-35.352;149.036;2022-11-13T09:17:56;17.60;99.90
40023;DHT22;25713;-35.352;149.036;2022-11-13T09:20:44;17.60;99.90
40023;DHT22;25713;-35.352;149.036;2022-11-13T09:23:31;17.60;99.90
40023;DHT22;25713;-35.352;149.036;2022-11-13T09:26:20;17.60;99.90
40023;DHT22;25713;-35.352;149.036;2022-11-13T09:29:08;17.60;99.90
40023;DHT22;25713;-35.352;149.036;2022-11-13T09:31:55;17.60;99.90
40023;DHT22;25713;-35.352;149.036;2022-11-13T09:34:43;17.60;99.90
40023;DHT22;25713;-35.352;149.036;2022-11-13T09:37:30;17.60;99.90
40023;DHT22;25713;-35.352;149.036;2022-11-13T09:40:24;17.60;99.90
40023;DHT22;25713;-35.352;149.036;2022-11-13T09:43:26;17.50;99.90
40023;DHT22;25713;-35.352;149.036;2022-11-13T09:46:18;17.60;99.90
40023;DHT22;25713;-35.352;149.036;2022-11-13T09:49:14;17.50;99.90
40023;DHT22;25713;-35.352;149.036;2022-11-13T09:52:09;17.50;99.90
40023;DHT22;25713;-35.352;149.036;2022-11-13T09:54:57;17.50;99.90
40023;DHT22;25713;-35.352;149.036;2022-11-13T09:57:48;17.50;99.90
40023;DHT22;25713;-35.352;149.036;2022-11-13T10:00:40;17.40;99.90
40023;DHT22;25713;-35.352;149.036;2022-11-13T10:03:34;17.50;99.90
40023;DHT22;25713;-35.352;149.036;2022-11-13T10:06:28;17.40;99.90
40023;DHT22;25713;-35.352;149.036;2022-11-13T10:09:27;17.50;99.90
40023;DHT22;25713;-35.352;149.036;2022-11-13T10:12:19;17.40;99.90
40023;DHT22;25713;-35.352;149.036;2022-11-13T10:15:09;17.50;99.90
40023;DHT22;25713;-35.352;149.036;2022-11-13T10:18:03;17.40;99.90
40023;DHT22;25713;-35.352;149.036;2022-11-13T10:20:53;17.50;99.90
40023;DHT22;25713;-35.352;149.036;2022-11-13T10:23:41;17.40;99.90
40023;DHT22;25713;-35.352;149.036;2022-11-13T10:26:30;17.40;99.90
40023;DHT22;25713;-35.352;149.036;2022-11-13T10:29:18;17.40;99.90
40023;DHT22;25713;-35.352;149.036;2022-11-13T10:32:21;17.40;99.90
40023;DHT22;25713;-35.352;149.036;2022-11-13T10:35:21;17.40;99.90
40023;DHT22;25713;-35.352;149.036;2022-11-13T10:38:15;17.40;99.90
40023;DHT22;25713;-35.352;149.036;2022-11-13T10:41:10;17.40;99.90
40023;DHT22;25713;-35.352;149.036;2022-11-13T10:44:06;17.40;99.90
40023;DHT22;25713;-35.352;149.036;2022-11-13T10:47:14;17.40;99.90
40023;DHT22;25713;-35.352;149.036;2022-11-13T10:50:10;17.40;99.90
40023;DHT22;25713;-35.352;149.036;2022-11-13T10:52:59;17.40;99.90
40023;DHT22;25713;-35.352;149.036;2022-11-13T10:55:50;17.40;99.90
40023;DHT22;25713;-35.352;149.036;2022-11-13T10:58:38;17.40;99.90
40023;DHT22;25713;-35.352;149.036;2022-11-13T11:01:26;17.40;99.90
40023;DHT22;25713;-35.352;149.036;2022-11-13T11:04:19;17.40;99.90
40023;DHT22;25713;-35.352;149.036;2022-11-13T11:07:13;17.40;99.90
40023;DHT22;25713;-35.352;149.036;2022-11-13T11:10:05;17.40;99.90
40023;DHT22;25713;-35.352;149.036;2022-11-13T11:12:54;17.30;99.90
40023;DHT22;25713;-35.352;149.036;2022-11-13T11:15:49;17.30;99.90
40023;DHT22;25713;-35.352;149.036;2022-11-13T11:18:41;17.30;99.90
40023;DHT22;25713;-35.352;149.036;2022-11-13T11:21:33;17.30;99.90
40023;DHT22;25713;-35.352;149.036;2022-11-13T11:24:23;17.30;99.90
40023;DHT22;25713;-35.352;149.036;2022-11-13T11:27:18;17.30;99.90
40023;DHT22;25713;-35.352;149.036;2022-11-13T11:30:16;17.30;99.90
40023;DHT22;25713;-35.352;149.036;2022-11-13T11:33:11;17.20;99.90
40023;DHT22;25713;-35.352;149.036;2022-11-13T11:36:05;17.20;99.90
40023;DHT22;25713;-35.352;149.036;2022-11-13T11:38:58;17.20;99.90
40023;DHT22;25713;-35.352;149.036;2022-11-13T11:41:49;17.20;99.90
40023;DHT22;25713;-35.352;149.036;2022-11-13T11:44:57;17.20;99.90
40023;DHT22;25713;-35.352;149.036;2022-11-13T11:47:46;17.20;99.90
40023;DHT22;25713;-35.352;149.036;2022-11-13T11:50:37;17.20;99.90
40023;DHT22;25713;-35.352;149.036;2022-11-13T11:53:33;17.20;99.90
40023;DHT22;25713;-35.352;149.036;2022-11-13T11:56:30;17.20;99.90
40023;DHT22;25713;-35.352;149.036;2022-11-13T11:59:37;17.10;99.90
40023;DHT22;25713;-35.352;149.036;2022-11-13T12:02:56;17.10;99.90
40023;DHT22;25713;-35.352;149.036;2022-11-13T12:05:57;17.10;99.90
40023;DHT22;25713;-35.352;149.036;2022-11-13T12:08:55;17.10;99.90
40023;DHT22;25713;-35.352;149.036;2022-11-13T12:11:50;17.20;99.90
40023;DHT22;25713;-35.352;149.036;2022-11-13T12:14:44;17.10;99.90
40023;DHT22;25713;-35.352;149.036;2022-11-13T12:17:44;17.10;99.90
40023;DHT22;25713;-35.352;149.036;2022-11-13T12:20:41;17.20;99.90
40023;DHT22;25713;-35.352;149.036;2022-11-13T12:23:42;17.20;99.90
40023;DHT22;25713;-35.352;149.036;2022-11-13T12:26:35;17.10;99.90
40023;DHT22;25713;-35.352;149.036;2022-11-13T12:29:34;17.20;99.90
40023;DHT22;25713;-35.352;149.036;2022-11-13T12:32:33;17.20;99.90
40023;DHT22;25713;-35.352;149.036;2022-11-13T12:35:27;17.10;99.90
40023;DHT22;25713;-35.352;149.036;2022-11-13T12:38:31;17.10;99.90
40023;DHT22;25713;-35.352;149.036;2022-11-13T12:41:25;17.10;99.90
40023;DHT22;25713;-35.352;149.036;2022-11-13T12:44:23;17.10;99.90
40023;DHT22;25713;-35.352;149.036;2022-11-13T12:47:11;17.10;99.90
40023;DHT22;25713;-35.352;149.036;2022-11-13T12:50:03;17.10;99.90
40023;DHT22;25713;-35.352;149.036;2022-11-13T12:53:04;17.10;99.90
40023;DHT22;25713;-35.352;149.036;2022-11-13T12:55:56;17.10;99.90
40023;DHT22;25713;-35.352;149.036;2022-11-13T12:58:53;17.10;99.90
40023;DHT22;25713;-35.352;149.036;2022-11-13T13:01:45;17.10;99.90
40023;DHT22;25713;-35.352;149.036;2022-11-13T13:04:52;17.10;99.90
40023;DHT22;25713;-35.352;149.036;2022-11-13T13:11:14;17.00;99.90
40023;DHT22;25713;-35.352;149.036;2022-11-13T13:14:17;17.00;99.90
40023;DHT22;25713;-35.352;149.036;2022-11-13T13:17:18;17.00;99.90
40023;DHT22;25713;-35.352;149.036;2022-11-13T13:23:12;17.00;99.90
40023;DHT22;25713;-35.352;149.036;2022-11-13T13:26:13;17.00;99.90
40023;DHT22;25713;-35.352;149.036;2022-11-13T13:29:13;17.00;99.90
40023;DHT22;25713;-35.352;149.036;2022-11-13T13:32:10;17.00;99.90
40023;DHT22;25713;-35.352;149.036;2022-11-13T13:35:04;16.90;99.90
40023;DHT22;25713;-35.352;149.036;2022-11-13T13:37:59;16.90;99.90
40023;DHT22;25713;-35.352;149.036;2022-11-13T13:41:03;16.90;99.90
40023;DHT22;25713;-35.352;149.036;2022-11-13T13:44:32;16.90;99.90
40023;DHT22;25713;-35.352;149.036;2022-11-13T13:47:24;16.90;99.90
40023;DHT22;25713;-35.352;149.036;2022-11-13T13:50:17;16.90;99.90
40023;DHT22;25713;-35.352;149.036;2022-11-13T13:53:05;16.80;99.90
40023;DHT22;25713;-35.352;149.036;2022-11-13T13:55:55;16.80;99.90
40023;DHT22;25713;-35.352;149.036;2022-11-13T13:58:43;16.80;99.90
40023;DHT22;25713;-35.352;149.036;2022-11-13T14:01:34;16.80;99.90
40023;DHT22;25713;-35.352;149.036;2022-11-13T14:04:23;16.80;99.90
40023;DHT22;25713;-35.352;149.036;2022-11-13T14:07:23;16.90;99.90
40023;DHT22;25713;-35.352;149.036;2022-11-13T14:10:16;16.80;99.90
40023;DHT22;25713;-35.352;149.036;2022-11-13T14:13:04;16.80;99.90
40023;DHT22;25713;-35.352;149.036;2022-11-13T14:16:00;16.80;99.90
40023;DHT22;25713;-35.352;149.036;2022-11-13T14:18:50;16.80;99.90
40023;DHT22;25713;-35.352;149.036;2022-11-13T14:21:49;16.80;99.90
40023;DHT22;25713;-35.352;149.036;2022-11-13T14:24:43;16.80;99.90
40023;DHT22;25713;-35.352;149.036;2022-11-13T14:27:32;16.70;99.90
40023;DHT22;25713;-35.352;149.036;2022-11-13T14:30:24;16.70;99.90
40023;DHT22;25713;-35.352;149.036;2022-11-13T14:33:15;16.70;99.90
40023;DHT22;25713;-35.352;149.036;2022-11-13T14:36:06;16.70;99.90
40023;DHT22;25713;-35.352;149.036;2022-11-13T14:38:54;16.70;99.90
40023;DHT22;25713;-35.352;149.036;2022-11-13T14:41:47;16.80;99.90
40023;DHT22;25713;-35.352;149.036;2022-11-13T14:44:36;16.70;99.90
40023;DHT22;25713;-35.352;149.036;2022-11-13T14:47:27;16.70;99.90
40023;DHT22;25713;-35.352;149.036;2022-11-13T14:50:22;16.70;99.90
40023;DHT22;25713;-35.352;149.036;2022-11-13T15:53:57;16.40;99.90
40023;DHT22;25713;-35.352;149.036;2022-11-13T15:56:46;16.30;99.90
40023;DHT22;25713;-35.352;149.036;2022-11-13T15:59:34;16.40;99.90
40023;DHT22;25713;-35.352;149.036;2022-11-13T16:02:21;16.40;99.90
40023;DHT22;25713;-35.352;149.036;2022-11-13T16:05:09;16.40;99.90
40023;DHT22;25713;-35.352;149.036;2022-11-13T16:07:56;16.40;99.90
40023;DHT22;25713;-35.352;149.036;2022-11-13T16:10:46;16.30;99.90
40023;DHT22;25713;-35.352;149.036;2022-11-13T16:13:33;16.30;99.90
40023;DHT22;25713;-35.352;149.036;2022-11-13T16:16:22;16.30;99.90
40023;DHT22;25713;-35.352;149.036;2022-11-13T16:19:17;16.30;99.90
40023;DHT22;25713;-35.352;149.036;2022-11-13T16:22:17;16.30;99.90
40023;DHT22;25713;-35.352;149.036;2022-11-13T16:25:05;16.30;99.90
40023;DHT22;25713;-35.352;149.036;2022-11-13T16:27:55;16.30;99.90
40023;DHT22;25713;-35.352;149.036;2022-11-13T16:30:43;16.30;99.90
40023;DHT22;25713;-35.352;149.036;2022-11-13T16:33:30;16.30;99.90
40023;DHT22;25713;-35.352;149.036;2022-11-13T16:36:19;16.20;99.90
40023;DHT22;25713;-35.352;149.036;2022-11-13T16:39:16;16.20;99.90
40023;DHT22;25713;-35.352;149.036;2022-11-13T16:42:04;16.20;99.90
40023;DHT22;25713;-35.352;149.036;2022-11-13T16:44:53;16.10;99.90
40023;DHT22;25713;-35.352;149.036;2022-11-13T16:47:41;16.10;99.90
40023;DHT22;25713;-35.352;149.036;2022-11-13T16:50:30;16.20;99.90
40023;DHT22;25713;-35.352;149.036;2022-11-13T16:53:17;16.20;99.90
40023;DHT22;25713;-35.352;149.036;2022-11-13T16:56:12;16.30;99.90
40023;DHT22;25713;-35.352;149.036;2022-11-13T16:58:59;16.30;99.90
40023;DHT22;25713;-35.352;149.036;2022-11-13T17:01:52;16.40;99.90
40023;DHT22;25713;-35.352;149.036;2022-11-13T17:04:40;16.40;99.90
40023;DHT22;25713;-35.352;149.036;2022-11-13T17:07:27;16.40;99.90
40023;DHT22;25713;-35.352;149.036;2022-11-13T17:10:15;16.40;99.90
40023;DHT22;25713;-35.352;149.036;2022-11-13T17:13:03;16.40;99.90
40023;DHT22;25713;-35.352;149.036;2022-11-13T17:15:50;16.30;99.90
40023;DHT22;25713;-35.352;149.036;2022-11-13T17:18:39;16.20;99.90
40023;DHT22;25713;-35.352;149.036;2022-11-13T17:21:27;16.10;99.90
40023;DHT22;25713;-35.352;149.036;2022-11-13T17:24:15;15.90;99.90
40023;DHT22;25713;-35.352;149.036;2022-11-13T17:27:02;15.90;99.90
40023;DHT22;25713;-35.352;149.036;2022-11-13T17:29:49;15.90;99.90
40023;DHT22;25713;-35.352;149.036;2022-11-13T17:32:36;15.90;99.90
40023;DHT22;25713;-35.352;149.036;2022-11-13T17:35:25;16.00;99.90
40023;DHT22;25713;-35.352;149.036;2022-11-13T17:38:13;16.00;99.90
40023;DHT22;25713;-35.352;149.036;2022-11-13T17:41:06;16.00;99.90
40023;DHT22;25713;-35.352;149.036;2022-11-13T17:43:52;15.90;99.90
40023;DHT22;25713;-35.352;149.036;2022-11-13T17:46:40;16.00;99.90
40023;DHT22;25713;-35.352;149.036;2022-11-13T17:49:27;15.90;99.90
40023;DHT22;25713;-35.352;149.036;2022-11-13T17:52:17;16.00;99.90
40023;DHT22;25713;-35.352;149.036;2022-11-13T17:55:05;15.90;99.90
40023;DHT22;25713;-35.352;149.036;2022-11-13T17:57:52;16.00;99.90
40023;DHT22;25713;-35.352;149.036;2022-11-13T18:00:39;16.00;99.90
40023;DHT22;25713;-35.352;149.036;2022-11-13T18:03:27;16.10;99.90
40023;DHT22;25713;-35.352;149.036;2022-11-13T18:06:14;16.20;99.90
40023;DHT22;25713;-35.352;149.036;2022-11-13T18:09:03;16.20;99.90
40023;DHT22;25713;-35.352;149.036;2022-11-13T18:11:51;16.20;99.90
40023;DHT22;25713;-35.352;149.036;2022-11-13T18:14:38;16.10;99.90
40023;DHT22;25713;-35.352;149.036;2022-11-13T18:17:25;16.20;99.90